Time;durP1;ratioP1;P1;durP2;ratioP2;P2;SDS_P1;SDS_P2;PMS_P1;PMS_P2;Temp;Humidity;BMP_temperature;BMP_pressure;BME280_temperature;BME280_humidity;BME280_pressure;Samples;Min_cycle;Max_cycle;Signal;HPM_P1;HPM_P2
2023/06/27 00:01:57;;;;;;;3.43;3.23;;;;;;;23.17;77.18;99196.59;5031694;28;20188;-66
2023/06/27 00:04:23;;;;;;;3.83;3.53;;;;;;;23.11;77.13;99189.59;5032196;28;20253;-67
2023/06/27 00:06:50;;;;;;;4.40;3.27;;;;;;;23.14;80.10;99175.47;5031980;28;20601;-67
2023/06/27 00:09:17;;;;;;;5.10;3.67;;;;;;;23.34;78.96;99185.34;5031892;28;20200;-67
2023/06/27 00:11:45;;;;;;;3.23;3.03;;;;;;;23.46;78.23;99194.72;5031568;28;20204;-67
2023/06/27 00:14:13;;;;;;;3.53;3.23;;;;;;;23.59;76.95;99194.03;5032080;28;20199;-68
2023/06/27 00:16:40;;;;;;;4.90;3.53;;;;;;;23.69;77.57;99196.63;5032422;28;20211;-68
2023/06/27 00:19:08;;;;;;;4.83;3.60;;;;;;;23.87;75.00;99205.94;5032054;28;20193;-67
2023/06/27 00:21:35;;;;;;;3.83;3.13;;;;;;;23.90;75.12;99217.03;5031361;28;20684;-67
2023/06/27 00:24:03;;;;;;;3.73;3.53;;;;;;;23.93;75.76;99213.75;5031728;28;20254;-67
2023/06/27 00:26:30;;;;;;;5.17;3.00;;;;;;;24.09;76.32;99215.19;5031679;28;20700;-66
2023/06/27 00:28:58;;;;;;;3.27;3.07;;;;;;;24.22;75.21;99214.47;5031411;28;20193;-66
2023/06/27 00:31:25;;;;;;;3.57;3.37;;;;;;;24.41;74.90;99215.31;5031722;28;20640;-67
2023/06/27 00:33:51;;;;;;;3.60;3.37;;;;;;;24.49;74.89;99211.94;5031601;28;20199;-67
2023/06/27 00:36:19;;;;;;;6.70;3.70;;;;;;;24.50;74.91;99210.84;5031669;28;20685;-67
2023/06/27 00:38:45;;;;;;;4.10;3.57;;;;;;;24.47;75.26;99205.97;5030508;28;20196;-67
2023/06/27 00:41:12;;;;;;;3.80;3.50;;;;;;;24.41;75.46;99206.34;5030817;28;20542;-67
2023/06/27 00:43:38;;;;;;;3.93;3.60;;;;;;;24.37;75.36;99206.13;5031810;28;20266;-67
2023/06/27 00:46:08;;;;;;;3.93;3.63;;;;;;;24.33;75.41;99212.44;5031332;28;20223;-66
2023/06/27 00:48:35;;;;;;;3.93;3.70;;;;;;;24.21;75.36;99207.44;5031701;28;20205;-67
2023/06/27 00:51:03;;;;;;;3.73;3.50;;;;;;;24.10;76.23;99216.78;5031907;28;20254;-68
2023/06/27 00:53:30;;;;;;;3.57;3.30;;;;;;;24.05;77.04;99213.38;5031335;28;20668;-67
2023/06/27 00:55:57;;;;;;;3.83;3.53;;;;;;;23.96;77.21;99215.91;5030773;28;20199;-67
2023/06/27 00:58:24;;;;;;;4.87;3.50;;;;;;;23.86;77.88;99215.19;5031620;28;20203;-68
2023/06/27 01:00:51;;;;;;;4.03;3.70;;;;;;;23.75;77.95;99219.91;5031757;28;20196;-67
2023/06/27 01:03:20;;;;;;;5.23;3.60;;;;;;;23.66;79.07;99216.22;5031277;28;20218;-67
2023/06/27 01:05:48;;;;;;;4.63;3.87;;;;;;;23.63;79.26;99222.19;5030725;28;20244;-67
2023/06/27 01:08:23;;;;;;;4.20;3.80;;;;;;;23.56;79.73;99221.72;5030436;28;20221;-67
2023/06/27 01:11:00;;;;;;;4.00;3.70;;;;;;;23.62;79.16;99225.19;5034970;28;20231;-68
2023/06/27 01:13:31;;;;;;;4.63;4.23;;;;;;;23.59;79.40;99225.75;5034608;28;20680;-68
2023/06/27 01:15:59;;;;;;;3.93;3.63;;;;;;;23.65;80.73;99217.28;5034625;28;20237;-68
2023/06/27 01:18:29;;;;;;;6.43;4.17;;;;;;;23.79;78.20;99215.53;5034701;28;20250;-68
2023/06/27 01:20:58;;;;;;;5.77;4.37;;;;;;;23.86;79.52;99215.19;5034769;28;20251;-68
2023/06/27 01:23:30;;;;;;;5.33;4.87;;;;;;;23.85;78.29;99211.66;5034636;28;20287;-67
2023/06/27 01:26:03;;;;;;;6.00;5.20;;;;;;;23.87;77.87;99216.78;5034317;28;20220;-67
2023/06/27 01:28:30;;;;;;;5.13;4.50;;;;;;;23.85;78.00;99216.28;5034332;28;20675;-67
2023/06/27 01:30:57;;;;;;;5.97;5.37;;;;;;;23.80;77.62;99211.72;5034312;28;20216;-67
2023/06/27 01:33:30;;;;;;;4.77;4.37;;;;;;;23.73;77.99;99222.09;5034136;28;20700;-67
2023/06/27 01:36:05;;;;;;;5.77;5.27;;;;;;;23.66;78.69;99215.41;5034522;28;20193;-67
2023/06/27 01:38:38;;;;;;;5.70;5.07;;;;;;;23.56;79.19;99208.16;5034115;28;20619;-67
2023/06/27 01:41:10;;;;;;;5.00;4.70;;;;;;;23.47;79.55;99215.31;5032339;28;20574;-66
2023/06/27 01:43:38;;;;;;;7.10;5.37;;;;;;;23.42;80.49;99209.13;5034277;28;20252;-67
2023/06/27 01:46:05;;;;;;;5.30;4.80;;;;;;;23.37;79.55;99204.59;5033393;28;20609;-66
2023/06/27 01:48:33;;;;;;;5.30;4.80;;;;;;;23.38;80.74;99208.09;5034093;28;20226;-66
2023/06/27 01:51:00;;;;;;;5.27;4.60;;;;;;;23.42;80.08;99204.53;5031653;28;20223;-66
2023/06/27 01:53:27;;;;;;;7.77;4.73;;;;;;;23.49;79.11;99209.59;5034112;28;20193;-68
2023/06/27 01:55:53;;;;;;;14.87;5.27;;;;;;;23.41;79.30;99202.91;5033928;28;20671;-66
2023/06/27 01:58:22;;;;;;;5.17;4.77;;;;;;;23.28;80.36;99202.78;5031565;28;20192;-67
2023/06/27 02:00:49;;;;;;;4.97;4.67;;;;;;;23.18;80.78;99198.22;5033685;28;20623;-66
2023/06/27 02:03:16;;;;;;;8.37;4.60;;;;;;;23.23;80.34;99206.31;5031615;28;20199;-67
2023/06/27 02:05:43;;;;;;;5.83;4.90;;;;;;;23.25;81.50;99200.63;5033285;28;20197;-67
2023/06/27 02:08:09;;;;;;;6.10;5.60;;;;;;;23.28;80.02;99198.13;5029526;28;20199;-67
2023/06/27 02:10:36;;;;;;;8.20;4.43;;;;;;;23.28;79.58;99203.56;5033334;28;20728;-67
2023/06/27 02:13:03;;;;;;;6.60;5.23;;;;;;;23.36;79.75;99216.50;5033505;28;20194;-69
2023/06/27 02:15:31;;;;;;;4.93;4.27;;;;;;;23.38;78.67;99218.94;5033566;28;20617;-68
2023/06/27 02:17:59;;;;;;;7.60;4.70;;;;;;;23.21;80.42;99205.81;5033976;28;20678;-68
2023/06/27 02:20:25;;;;;;;4.60;4.20;;;;;;;23.15;80.25;99209.63;5032586;28;20710;-67
2023/06/27 02:22:52;;;;;;;5.73;4.30;;;;;;;23.17;80.40;99198.50;5033769;28;20192;-67
2023/06/27 02:25:19;;;;;;;4.40;4.07;;;;;;;23.32;78.80;99209.25;5033885;28;20191;-67
2023/06/27 02:27:46;;;;;;;8.60;4.67;;;;;;;23.37;77.82;99223.56;5033532;28;20232;-67
2023/06/27 02:30:13;;;;;;;4.77;4.47;;;;;;;23.39;78.52;99221.34;5032863;28;20197;-68
2023/06/27 02:32:41;;;;;;;4.70;4.23;;;;;;;23.39;79.07;99226.78;5034006;28;20249;-67
2023/06/27 02:35:08;;;;;;;5.17;4.23;;;;;;;23.40;78.46;99225.69;5033357;28;20730;-67
2023/06/27 02:37:35;;;;;;;5.73;4.77;;;;;;;23.48;78.20;99225.06;5033790;28;20583;-68
2023/06/27 02:40:02;;;;;;;11.30;5.30;;;;;;;23.49;77.64;99223.16;5033572;28;20201;-68
2023/06/27 02:42:30;;;;;;;8.87;4.50;;;;;;;23.50;77.66;99225.59;5033507;28;20638;-67
2023/06/27 02:44:57;;;;;;;6.10;4.80;;;;;;;23.45;78.35;99236.50;5033715;28;20195;-67
2023/06/27 02:47:23;;;;;;;4.70;4.30;;;;;;;23.45;78.87;99219.41;5033131;28;20593;-67
2023/06/27 02:49:51;;;;;;;10.30;5.03;;;;;;;23.56;77.88;99237.22;5033135;28;20200;-66
2023/06/27 02:52:18;;;;;;;9.47;5.30;;;;;;;23.65;77.76;99238.19;5033429;28;20195;-67
2023/06/27 02:54:45;;;;;;;10.60;4.80;;;;;;;23.68;76.81;99240.34;5033382;28;20204;-67
2023/06/27 02:57:11;;;;;;;10.33;5.27;;;;;;;23.70;78.18;99243.56;5032549;28;20317;-69
2023/06/27 02:59:38;;;;;;;7.07;5.27;;;;;;;23.78;77.11;99235.63;5032950;28;20219;-68
2023/06/27 03:02:05;;;;;;;6.83;6.17;;;;;;;23.76;76.88;99232.38;5033342;28;20549;-68
2023/06/27 03:04:32;;;;;;;6.17;5.57;;;;;;;23.79;77.31;99237.22;5032834;28;20254;-68
2023/06/27 03:07:00;;;;;;;8.47;5.70;;;;;;;23.86;77.65;99237.69;5013329;28;20279;-68
2023/06/27 03:09:27;;;;;;;11.27;5.63;;;;;;;23.89;77.89;99239.81;5013261;28;20249;-68
2023/06/27 03:11:53;;;;;;;9.37;5.73;;;;;;;23.94;76.60;99228.13;5013064;28;20202;-68
2023/06/27 03:14:20;;;;;;;8.37;5.73;;;;;;;24.06;77.19;99234.75;5012955;28;20219;-69
2023/06/27 03:16:47;;;;;;;7.60;5.67;;;;;;;24.36;75.11;99237.13;5012958;28;20734;-68
2023/06/27 03:19:13;;;;;;;10.47;5.27;;;;;;;24.67;75.71;99240.25;5013230;28;20198;-68
2023/06/27 03:21:40;;;;;;;6.93;5.50;;;;;;;24.69;75.08;99244.28;5012661;28;20251;-68
2023/06/27 03:24:08;;;;;;;8.73;5.77;;;;;;;24.61;74.26;99244.13;5013100;28;20201;-68
2023/06/27 03:26:35;;;;;;;6.97;4.87;;;;;;;24.56;74.99;99253.13;5012921;28;20307;-68
2023/06/27 03:29:02;;;;;;;6.33;5.23;;;;;;;24.61;74.33;99253.09;5013153;28;20197;-68
2023/06/27 03:31:29;;;;;;;7.83;5.73;;;;;;;24.52;75.36;99252.09;5012530;28;20260;-68
2023/06/27 03:33:57;;;;;;;5.27;4.77;;;;;;;24.46;76.52;99245.13;5012697;28;20669;-69
2023/06/27 03:36:24;;;;;;;6.70;5.67;;;;;;;24.46;75.92;99241.59;5012532;28;20200;-69
2023/06/27 03:38:50;;;;;;;10.20;5.37;;;;;;;24.52;76.02;99243.97;5013176;28;20307;-68
2023/06/27 03:41:19;;;;;;;9.63;5.17;;;;;;;24.59;76.44;99247.09;5012685;28;20193;-69
2023/06/27 03:43:45;;;;;;;9.53;5.37;;;;;;;24.69;75.67;99249.72;5012808;28;20229;-67
2023/06/27 03:46:14;;;;;;;8.27;5.90;;;;;;;24.96;74.87;99247.13;5012283;28;20256;-68
2023/06/27 03:48:40;;;;;;;5.67;5.27;;;;;;;25.20;73.52;99240.78;5012786;28;20607;-66
2023/06/27 03:51:07;;;;;;;11.20;6.47;;;;;;;25.28;71.75;99243.69;5012622;28;20194;-66
2023/06/27 03:53:34;;;;;;;7.87;6.30;;;;;;;25.16;73.05;99239.78;5012431;28;20253;-66
2023/06/27 03:56:01;;;;;;;10.10;6.57;;;;;;;24.94;73.62;99232.22;5011366;28;20256;-67
2023/06/27 03:58:30;;;;;;;6.47;5.27;;;;;;;24.79;74.91;99244.13;5012112;28;20580;-66
2023/06/27 04:00:57;;;;;;;9.63;6.23;;;;;;;24.50;75.48;99231.78;5012502;28;20197;-65
2023/06/27 04:03:23;;;;;;;5.63;5.23;;;;;;;24.34;79.43;99233.88;5012548;28;20275;-66
2023/06/27 04:05:50;;;;;;;6.83;6.23;;;;;;;24.82;75.82;99248.97;5012405;28;20252;-66
2023/06/27 04:08:17;;;;;;;9.70;5.63;;;;;;;25.58;73.84;99253.22;5012093;28;20232;-66
2023/06/27 04:10:44;;;;;;;11.27;6.57;;;;;;;26.29;70.37;99256.22;5012382;28;20252;-65
2023/06/27 04:13:10;;;;;;;8.93;5.60;;;;;;;27.07;66.77;99268.38;5012413;28;20249;-66
2023/06/27 04:15:40;;;;;;;7.20;5.30;;;;;;;27.59;65.83;99266.84;5012351;28;20260;-65
2023/06/27 04:18:07;;;;;;;9.70;5.67;;;;;;;28.10;62.54;99269.88;5012329;28;20287;-65
2023/06/27 04:20:34;;;;;;;10.53;5.10;;;;;;;28.60;61.00;99274.72;5012266;28;20264;-65
2023/06/27 04:23:00;;;;;;;17.80;6.20;;;;;;;29.23;59.49;99279.59;5013901;28;20256;-66
2023/06/27 04:25:32;;;;;;;8.70;5.10;;;;;;;29.96;55.94;99290.28;5031591;28;20634;-66
2023/06/27 04:27:58;;;;;;;5.90;4.40;;;;;;;30.71;52.82;99300.47;5032015;28;20259;-66
2023/06/27 04:30:25;;;;;;;9.30;4.73;;;;;;;31.34;51.37;99306.47;5031641;28;20345;-67
2023/06/27 04:32:53;;;;;;;6.40;4.63;;;;;;;31.86;49.44;99313.09;5031902;28;20259;-67
2023/06/27 04:35:21;;;;;;;7.23;4.57;;;;;;;32.22;47.91;99310.38;5030959;28;20198;-68
2023/06/27 04:37:48;;;;;;;5.10;4.60;;;;;;;32.77;46.02;99291.38;5031785;28;20230;-67
2023/06/27 04:40:15;;;;;;;8.70;4.67;;;;;;;33.18;44.81;99296.56;5031322;28;20683;-68
2023/06/27 04:42:42;;;;;;;7.63;4.40;;;;;;;33.39;44.28;99287.34;5032821;28;20251;-66
2023/06/27 04:45:09;;;;;;;5.83;5.10;;;;;;;33.66;43.91;99289.28;5034750;28;20223;-66
2023/06/27 04:47:36;;;;;;;6.47;4.70;;;;;;;33.68;43.34;99292.50;5035349;28;20227;-66
2023/06/27 04:50:05;;;;;;;6.77;4.90;;;;;;;33.61;43.37;99289.53;5035549;28;20280;-66
2023/06/27 04:52:32;;;;;;;5.77;5.13;;;;;;;34.16;41.96;99294.97;5035436;28;20251;-66
2023/06/27 04:54:59;;;;;;;10.07;5.60;;;;;;;34.27;41.26;99296.84;5035204;28;20619;-66
2023/06/27 04:57:26;;;;;;;15.50;5.15;;;;;;;34.60;40.88;99304.75;5035315;28;20197;-66
2023/06/27 04:59:53;;;;;;;8.70;5.07;;;;;;;34.49;41.12;99295.44;5033486;28;20197;-66
2023/06/27 05:02:19;;;;;;;5.75;4.88;;;;;;;34.42;41.40;99295.25;5026342;28;20190;-67
2023/06/27 05:04:46;;;;;;;5.82;4.90;;;;;;;34.79;39.83;99296.53;5022111;28;20636;-69
2023/06/27 05:07:14;;;;;;;64.85;9.02;;;;;;;34.98;39.40;99296.59;5034211;28;20275;-66
2023/06/27 05:09:41;;;;;;;10.23;5.00;;;;;;;34.92;39.38;99300.78;5034677;28;20673;-67
2023/06/27 05:12:08;;;;;;;17.02;6.10;;;;;;;35.11;39.14;99300.81;5034721;28;20657;-67
2023/06/27 05:14:35;;;;;;;9.40;4.80;;;;;;;35.30;39.11;99296.13;5035154;28;20251;-66
2023/06/27 05:17:01;;;;;;;12.98;5.63;;;;;;;35.58;38.44;99306.94;5032457;28;20669;-68
2023/06/27 05:19:28;;;;;;;18.58;5.05;;;;;;;35.64;38.59;99300.75;5014679;28;20275;-68
2023/06/27 05:21:55;;;;;;;8.25;4.88;;;;;;;35.50;38.19;99302.44;5014830;28;20256;-67
2023/06/27 05:24:23;;;;;;;9.43;5.20;;;;;;;35.34;38.68;99298.94;5026649;28;20194;-67
2023/06/27 05:26:49;;;;;;;6.75;6.05;;;;;;;35.74;37.42;99304.88;5034376;28;20193;-67
2023/06/27 05:29:16;;;;;;;11.77;6.28;;;;;;;35.90;37.50;99302.84;5034589;28;20254;-68
2023/06/27 05:31:43;;;;;;;42.45;7.20;;;;;;;35.85;36.35;99292.09;5032461;28;20259;-67
2023/06/27 05:34:12;;;;;;;9.95;5.32;;;;;;;35.56;37.22;99299.00;5033820;28;20217;-68
2023/06/27 05:36:38;;;;;;;10.93;5.53;;;;;;;35.54;36.97;99300.53;5033756;28;20204;-68
2023/06/27 05:39:05;;;;;;;6.28;4.88;;;;;;;35.70;37.02;99299.28;5033744;28;20623;-69
2023/06/27 05:41:33;;;;;;;5.35;4.20;;;;;;;35.44;36.91;99301.94;5032530;28;20657;-69
2023/06/27 05:44:00;;;;;;;5.30;4.32;;;;;;;35.47;36.41;99301.19;5033721;28;20619;-68
2023/06/27 05:46:26;;;;;;;83.53;8.88;;;;;;;35.39;35.20;99304.22;5031827;28;20201;-68
2023/06/27 05:48:53;;;;;;;7.82;4.47;;;;;;;35.10;36.71;99291.72;5032184;28;20700;-68
2023/06/27 05:51:22;;;;;;;10.73;5.03;;;;;;;34.71;38.94;99294.75;5032954;28;20201;-70
2023/06/27 05:53:48;;;;;;;21.80;5.70;;;;;;;34.61;38.76;99292.53;5032051;28;20193;-70
2023/06/27 05:56:15;;;;;;;6.50;3.80;;;;;;;34.64;37.26;99294.59;5032662;28;20581;-69
2023/06/27 05:58:43;;;;;;;4.80;3.72;;;;;;;34.55;38.46;99291.22;5016493;28;20584;-68
2023/06/27 06:01:10;;;;;;;4.70;4.35;;;;;;;34.66;37.89;99303.31;5034481;28;20621;-69
2023/06/27 06:03:36;;;;;;;6.22;3.90;;;;;;;34.39;38.30;99295.97;5034349;28;20197;-69
2023/06/27 06:06:03;;;;;;;5.55;4.30;;;;;;;34.63;37.65;99302.09;5034010;28;20251;-69
2023/06/27 06:08:30;;;;;;;4.88;4.32;;;;;;;34.39;37.77;99304.25;5033527;28;20256;-69
2023/06/27 06:10:57;;;;;;;7.28;4.78;;;;;;;34.15;37.90;99299.69;5033983;28;20228;-68
2023/06/27 06:13:23;;;;;;;4.68;4.28;;;;;;;34.37;37.66;99301.84;5033723;28;20251;-68
2023/06/27 06:15:51;;;;;;;10.40;4.57;;;;;;;34.22;37.26;99302.63;5032005;28;20888;-69
2023/06/27 06:18:18;;;;;;;4.72;4.40;;;;;;;34.28;36.77;99303.13;5032453;28;20248;-69
2023/06/27 06:20:45;;;;;;;13.50;4.82;;;;;;;34.07;37.58;99308.13;5032757;28;20193;-69
2023/06/27 06:23:11;;;;;;;7.15;4.68;;;;;;;34.03;37.38;99296.19;5032881;28;20966;-69
2023/06/27 06:25:38;;;;;;;4.40;4.10;;;;;;;34.11;38.63;99297.97;5033174;28;20263;-66
2023/06/27 06:28:05;;;;;;;9.77;4.03;;;;;;;34.06;38.44;99296.31;5033098;28;20224;-67
2023/06/27 06:30:31;;;;;;;5.28;3.95;;;;;;;34.21;38.15;99300.22;5033637;28;20229;-67
2023/06/27 06:33:01;;;;;;;4.95;4.45;;;;;;;34.30;37.50;99298.06;5033491;28;20193;-67
2023/06/27 06:35:27;;;;;;;4.82;4.43;;;;;;;34.42;37.60;99303.53;5033310;28;20560;-68
2023/06/27 06:37:54;;;;;;;4.57;3.88;;;;;;;34.49;37.28;99292.69;5033707;28;20632;-68
2023/06/27 06:40:21;;;;;;;4.35;3.95;;;;;;;34.61;37.17;99307.16;5033587;28;20252;-68
2023/06/27 06:42:48;;;;;;;4.72;4.30;;;;;;;34.64;36.43;99300.09;5033279;28;20197;-67
2023/06/27 06:45:15;;;;;;;5.82;3.63;;;;;;;34.40;37.13;99289.28;5033250;28;20623;-69
2023/06/27 06:47:41;;;;;;;4.63;4.22;;;;;;;34.37;36.98;99290.00;5033464;28;20220;-68
2023/06/27 06:50:10;;;;;;;6.85;4.43;;;;;;;34.59;37.10;99292.13;5033536;28;20193;-67
2023/06/27 06:52:37;;;;;;;7.15;5.07;;;;;;;34.48;37.26;99285.53;5033034;28;20197;-68
2023/06/27 06:55:04;;;;;;;8.10;4.30;;;;;;;34.43;37.57;99289.38;5033098;28;20319;-68
2023/06/27 06:57:31;;;;;;;24.80;6.18;;;;;;;34.34;37.56;99290.72;5033288;28;20201;-68
2023/06/27 06:59:57;;;;;;;4.40;4.00;;;;;;;34.35;37.53;99284.84;5033073;28;20194;-68
2023/06/27 07:02:24;;;;;;;5.07;4.40;;;;;;;34.43;37.53;99283.06;5033131;28;20258;-67
2023/06/27 07:04:51;;;;;;;6.07;4.47;;;;;;;34.29;37.78;99282.69;5032409;28;20735;-67
2023/06/27 07:07:19;;;;;;;5.47;4.35;;;;;;;34.22;37.39;99280.56;5032780;28;20244;-68
2023/06/27 07:09:46;;;;;;;4.53;4.13;;;;;;;33.66;38.65;99286.53;5033200;28;20244;-67
2023/06/27 07:12:13;;;;;;;11.95;4.63;;;;;;;33.72;37.99;99283.16;5033112;28;20204;-68
2023/06/27 07:14:40;;;;;;;4.65;4.35;;;;;;;33.69;38.50;99280.31;5032981;28;20197;-67
2023/06/27 07:17:07;;;;;;;5.18;4.68;;;;;;;33.89;38.36;99280.13;5032724;28;20208;-67
2023/06/27 07:19:34;;;;;;;6.75;4.65;;;;;;;34.01;37.11;99287.50;5032596;28;20220;-68
2023/06/27 07:22:00;;;;;;;4.88;4.38;;;;;;;34.12;37.86;99277.53;5032583;28;20197;-69
2023/06/27 07:24:28;;;;;;;11.35;4.97;;;;;;;34.33;36.40;99283.63;5032845;28;20201;-67
2023/06/27 07:26:55;;;;;;;4.32;4.05;;;;;;;34.23;35.89;99281.34;5032508;28;20703;-67
2023/06/27 07:29:22;;;;;;;6.53;4.95;;;;;;;34.00;36.60;99272.91;5032317;28;20786;-68
2023/06/27 07:31:48;;;;;;;4.88;4.47;;;;;;;33.71;36.06;99278.03;5032334;28;20225;-68
2023/06/27 07:34:16;;;;;;;6.28;4.60;;;;;;;33.41;37.50;99274.03;5032596;28;20193;-68
2023/06/27 07:36:43;;;;;;;5.10;4.60;;;;;;;33.06;37.42;99268.28;5032683;28;20205;-67
2023/06/27 07:39:10;;;;;;;6.50;4.88;;;;;;;33.36;37.15;99266.00;5032602;28;20327;-67
2023/06/27 07:41:38;;;;;;;5.18;4.35;;;;;;;33.06;37.89;99268.28;5032050;28;20351;-68
2023/06/27 07:44:05;;;;;;;4.75;4.22;;;;;;;33.25;38.06;99266.50;5032273;28;20635;-68
2023/06/27 07:46:32;;;;;;;12.88;5.10;;;;;;;33.75;36.44;99267.84;5029719;28;20622;-69
2023/06/27 07:48:59;;;;;;;23.67;5.68;;;;;;;33.83;37.09;99269.69;5031498;28;20777;-67
2023/06/27 07:51:26;;;;;;;5.75;4.82;;;;;;;33.40;37.89;99269.66;5031978;28;20229;-68
2023/06/27 07:53:52;;;;;;;7.03;5.22;;;;;;;33.60;37.29;99266.69;5031921;28;20193;-67
2023/06/27 07:56:19;;;;;;;9.82;4.75;;;;;;;33.60;37.97;99269.44;5031153;28;20194;-67
2023/06/27 07:58:47;;;;;;;4.72;4.32;;;;;;;33.69;35.59;99272.03;5031387;28;20198;-67
2023/06/27 08:01:14;;;;;;;5.03;4.47;;;;;;;33.74;36.96;99274.53;5032300;28;20186;-67
2023/06/27 08:03:41;;;;;;;4.70;4.38;;;;;;;33.64;36.26;99266.78;5028982;28;20622;-67
2023/06/27 08:06:07;;;;;;;5.13;4.72;;;;;;;33.51;36.86;99262.50;5032479;28;20201;-67
2023/06/27 08:08:36;;;;;;;4.80;4.40;;;;;;;33.79;38.06;99258.53;5032316;28;20275;-67
2023/06/27 08:11:02;;;;;;;5.90;5.38;;;;;;;34.11;36.89;99253.88;5032192;28;20193;-68
2023/06/27 08:13:29;;;;;;;8.10;4.88;;;;;;;34.29;36.48;99261.41;5031924;28;20197;-69
2023/06/27 08:15:57;;;;;;;5.95;5.35;;;;;;;34.52;35.33;99269.84;5032355;28;20193;-69
2023/06/27 08:18:24;;;;;;;6.97;4.75;;;;;;;34.59;35.01;99261.75;5028472;28;20197;-68
2023/06/27 08:20:51;;;;;;;5.75;4.53;;;;;;;34.70;35.03;99260.81;5031878;28;20233;-68
2023/06/27 08:23:17;;;;;;;9.05;4.50;;;;;;;34.82;36.22;99263.50;5031971;28;20201;-68
2023/06/27 08:25:44;;;;;;;4.88;4.57;;;;;;;34.48;35.77;99257.94;5032559;28;20190;-68
2023/06/27 08:28:11;;;;;;;5.18;4.68;;;;;;;34.26;36.86;99261.34;5030032;28;20271;-69
2023/06/27 08:30:38;;;;;;;8.35;4.50;;;;;;;34.54;36.20;99257.31;5031811;28;20221;-71
2023/06/27 08:33:06;;;;;;;5.45;4.43;;;;;;;34.71;35.00;99261.63;5031937;28;20273;-68
2023/06/27 08:35:35;;;;;;;5.20;4.28;;;;;;;34.66;35.61;99245.38;5030436;28;20254;-67
2023/06/27 08:38:03;;;;;;;7.63;4.25;;;;;;;34.75;34.80;99248.72;5031134;28;20581;-68
2023/06/27 08:40:34;;;;;;;6.82;4.95;;;;;;;34.81;35.14;99250.84;5028677;28;20201;-68
2023/06/27 08:43:01;;;;;;;5.53;5.22;;;;;;;34.48;33.58;99257.94;5031344;28;20636;-68
2023/06/27 08:45:27;;;;;;;28.70;6.90;;;;;;;34.13;33.36;99251.56;5030566;28;20194;-67
2023/06/27 08:47:54;;;;;;;3.97;3.75;;;;;;;33.75;34.28;99223.75;5025733;28;20189;-70
2023/06/27 08:50:23;;;;;;;8.30;4.57;;;;;;;33.26;35.63;99240.56;5021826;28;20694;-67
2023/06/27 08:52:56;;;;;;;4.18;3.97;;;;;;;33.60;34.57;99249.38;5019219;28;20193;-69
2023/06/27 08:55:31;;;;;;;5.20;4.80;;;;;;;33.97;34.88;99240.50;5030228;28;20235;-68
2023/06/27 08:57:59;;;;;;;6.82;4.32;;;;;;;34.13;35.42;99243.28;5016542;28;20186;-70
2023/06/27 09:00:26;;;;;;;4.93;4.53;;;;;;;34.17;34.22;99235.91;5011966;28;20577;-69
2023/06/27 09:02:54;;;;;;;4.00;3.70;;;;;;;34.37;34.05;99232.09;5012050;28;20201;-67
2023/06/27 09:05:23;;;;;;;20.80;5.03;;;;;;;34.19;34.26;99237.16;5018696;28;20205;-68
2023/06/27 09:07:50;;;;;;;4.70;4.20;;;;;;;34.29;33.55;99233.03;5027155;28;20198;-67
2023/06/27 09:10:17;;;;;;;7.55;4.38;;;;;;;34.51;32.77;99240.69;5028815;28;20243;-67
2023/06/27 09:12:45;;;;;;;9.18;4.28;;;;;;;34.77;32.78;99232.56;5026439;28;20190;-67
2023/06/27 09:15:12;;;;;;;4.00;3.60;;;;;;;35.05;32.12;99238.72;5029507;28;20189;-64
2023/06/27 09:17:39;;;;;;;8.35;4.25;;;;;;;35.16;32.20;99217.66;5029438;28;20677;-65
2023/06/27 09:20:09;;;;;;;5.20;3.40;;;;;;;34.96;31.47;99240.91;5028978;28;20263;-65
2023/06/27 09:22:39;;;;;;;13.70;4.60;;;;;;;34.64;32.00;99228.34;5029334;28;20193;-63
2023/06/27 09:25:14;;;;;;;3.92;3.60;;;;;;;34.57;32.13;99233.72;5028365;28;20203;-64
2023/06/27 09:27:41;;;;;;;5.65;3.70;;;;;;;34.44;33.75;99230.28;5026411;28;20665;-66
2023/06/27 09:30:09;;;;;;;3.60;3.28;;;;;;;34.64;31.58;99229.16;5029518;28;20712;-64
2023/06/27 09:32:36;;;;;;;8.32;3.92;;;;;;;34.94;31.14;99234.97;5023032;28;20232;-64
2023/06/27 09:35:03;;;;;;;3.90;3.60;;;;;;;35.03;29.81;99225.28;5026856;28;20232;-65
2023/06/27 09:37:32;;;;;;;4.63;3.45;;;;;;;34.89;30.08;99230.53;5029788;28;20292;-64
2023/06/27 09:40:17;;;;;;;4.38;3.85;;;;;;;35.28;31.21;99223.06;5031861;28;20201;-65
2023/06/27 09:42:50;;;;;;;10.48;4.53;;;;;;;35.49;30.36;99226.22;5031081;28;20262;-66
2023/06/27 09:45:17;;;;;;;3.65;3.35;;;;;;;35.52;29.65;99229.03;5031308;28;20558;-66
2023/06/27 09:47:44;;;;;;;4.25;3.10;;;;;;;35.18;29.88;99220.84;5034693;28;20200;-66
2023/06/27 09:50:11;;;;;;;7.53;3.38;;;;;;;34.98;30.84;99219.28;5031605;28;20692;-65
2023/06/27 09:52:37;;;;;;;5.97;4.30;;;;;;;34.89;32.27;99213.16;5030988;28;20197;-67
2023/06/27 09:55:17;;;;;;;7.00;4.22;;;;;;;34.20;31.81;99224.94;5032541;28;20235;-64
2023/06/27 09:57:44;;;;;;;3.85;3.47;;;;;;;34.14;32.07;99220.88;5030605;28;20181;-65
2023/06/27 10:00:12;;;;;;;4.38;4.00;;;;;;;34.38;30.87;99208.84;5031092;28;20201;-63
2023/06/27 10:02:39;;;;;;;3.65;3.45;;;;;;;34.54;30.40;99217.88;5033024;28;20201;-63
2023/06/27 10:05:06;;;;;;;3.15;2.95;;;;;;;34.81;29.82;99208.63;5031852;28;20235;-63
2023/06/27 10:07:32;;;;;;;3.72;3.45;;;;;;;34.85;30.00;99220.56;5031504;28;20193;-64
2023/06/27 10:09:59;;;;;;;18.17;4.30;;;;;;;34.84;29.44;99216.19;5032354;28;20224;-63
2023/06/27 10:12:27;;;;;;;3.67;3.22;;;;;;;34.45;30.42;99212.56;5032544;28;20193;-64
2023/06/27 10:14:55;;;;;;;4.55;3.45;;;;;;;34.50;30.61;99204.00;5032088;28;20251;-63
2023/06/27 10:17:23;;;;;;;4.00;3.70;;;;;;;34.91;28.81;99221.88;5032575;28;20189;-62
2023/06/27 10:19:50;;;;;;;3.33;3.17;;;;;;;35.10;28.10;99217.16;5032660;28;20311;-64
2023/06/27 10:22:19;;;;;;;9.77;3.53;;;;;;;35.06;28.69;99207.19;5026630;28;20732;-63
2023/06/27 10:24:48;;;;;;;6.90;3.70;;;;;;;35.00;28.57;99208.66;5031205;28;20205;-64
2023/06/27 10:27:20;;;;;;;3.15;2.85;;;;;;;35.18;28.37;99207.03;5032649;28;20783;-64
2023/06/27 10:29:49;;;;;;;11.77;4.13;;;;;;;34.84;28.97;99199.63;5032502;28;20236;-62
2023/06/27 10:32:17;;;;;;;7.53;3.92;;;;;;;34.88;29.62;99189.47;5031665;28;20279;-65
2023/06/27 10:34:44;;;;;;;3.60;3.38;;;;;;;35.15;27.78;99199.50;5034864;28;20279;-65
2023/06/27 10:37:12;;;;;;;7.32;3.50;;;;;;;34.69;28.75;99187.47;5047366;28;20739;-64
2023/06/27 10:39:41;;;;;;;5.63;3.60;;;;;;;34.33;29.11;99195.34;5025747;28;20629;-64
2023/06/27 10:42:27;;;;;;;8.38;3.33;;;;;;;34.38;29.16;99175.75;5028374;28;20193;-65
2023/06/27 10:45:02;;;;;;;4.25;3.60;;;;;;;34.48;29.16;99177.91;5021503;28;20215;-64
2023/06/27 10:47:33;;;;;;;10.18;3.90;;;;;;;34.78;28.95;99176.22;5028509;28;20185;-64
2023/06/27 10:50:08;;;;;;;8.93;3.88;;;;;;;34.95;29.23;99173.06;5031812;28;20205;-62
2023/06/27 10:52:35;;;;;;;3.15;2.80;;;;;;;34.94;28.56;99171.47;5030995;28;20189;-62
2023/06/27 10:55:27;;;;;;;3.20;3.00;;;;;;;35.28;27.96;99178.84;5031190;28;20553;-63
2023/06/27 10:58:06;;;;;;;3.88;3.33;;;;;;;34.72;28.30;99166.63;5030423;28;20193;-66
2023/06/27 11:00:35;;;;;;;4.15;3.85;;;;;;;34.86;27.92;99161.44;5029827;28;20272;-66
2023/06/27 11:03:05;;;;;;;3.45;3.15;;;;;;;35.08;28.12;99166.22;5031912;28;20272;-65
2023/06/27 11:05:46;;;;;;;9.13;3.75;;;;;;;35.14;29.32;99165.53;5026783;28;20243;-66
2023/06/27 11:08:15;;;;;;;3.72;3.53;;;;;;;35.27;28.27;99146.84;5030051;28;20266;-65
2023/06/27 11:10:53;;;;;;;3.80;3.60;;;;;;;35.46;28.44;99164.19;5031504;28;20217;-65
2023/06/27 11:13:22;;;;;;;6.50;3.70;;;;;;;35.57;27.30;99156.09;5030534;28;20255;-64
2023/06/27 11:15:51;;;;;;;6.22;4.15;;;;;;;35.51;30.05;99143.72;5027300;28;20587;-67
2023/06/27 11:18:20;;;;;;;16.23;3.75;;;;;;;35.26;29.19;99145.22;5027536;28;20288;-67
2023/06/27 11:20:47;;;;;;;4.43;3.60;;;;;;;35.27;29.31;99124.75;5030205;28;20610;-68
2023/06/27 11:23:15;;;;;;;4.30;3.15;;;;;;;35.52;28.11;99139.81;5031679;28;20189;-67
2023/06/27 11:25:43;;;;;;;3.78;3.58;;;;;;;35.51;29.01;99146.50;5031233;28;20272;-69
2023/06/27 11:28:11;;;;;;;3.55;3.35;;;;;;;35.30;28.89;99146.13;5030169;28;20673;-67
2023/06/27 11:30:39;;;;;;;3.63;3.42;;;;;;;34.89;29.06;99135.84;5027758;28;20328;-69
2023/06/27 11:33:08;;;;;;;10.82;3.53;;;;;;;34.55;27.96;99136.69;5032162;28;20355;-69
2023/06/27 11:35:35;;;;;;;5.43;3.40;;;;;;;34.18;28.91;99136.25;5029300;28;20201;-66